createdAt,value
2019-04-25T00:02:18.421Z,94469.66
2019-04-25T00:04:47.969Z,94479.97
2019-04-25T00:07:17.458Z,94479.39
2019-04-25T00:09:48.627Z,94477.47
2019-04-25T00:12:19.284Z,94481.58
2019-04-25T00:14:48.841Z,94487.31
2019-04-25T00:17:18.760Z,94482.83
2019-04-25T00:19:48.549Z,94490.00
2019-04-25T00:22:19.634Z,94484.22
2019-04-25T00:24:57.481Z,94481.19
2019-04-25T00:27:27.233Z,94479.14
2019-04-25T00:29:57.319Z,94474.94
2019-04-25T00:32:26.813Z,94479.70
2019-04-25T00:34:56.274Z,94492.46
2019-04-25T00:37:25.761Z,94486.61
2019-04-25T00:39:55.248Z,94497.14
2019-04-25T00:42:24.728Z,94502.24
2019-04-25T00:44:54.209Z,94501.62
2019-04-25T00:47:23.698Z,94497.23
2019-04-25T00:49:53.286Z,94487.75
2019-04-25T00:52:23.323Z,94494.46
2019-04-25T00:54:53.521Z,94485.83
2019-04-25T00:57:23.824Z,94485.69
2019-04-25T00:59:54.940Z,94482.75
2019-04-25T01:02:31.597Z,94487.48
2019-04-25T01:05:01.910Z,94477.64
2019-04-25T01:07:32.361Z,94485.47
2019-04-25T01:10:02.822Z,94487.33
2019-04-25T01:12:32.933Z,94483.72
2019-04-25T01:15:02.411Z,94487.65
2019-04-25T01:17:32.160Z,94478.83
2019-04-25T01:20:01.627Z,94474.77
2019-04-25T01:22:31.605Z,94469.55
2019-04-25T01:25:01.076Z,94474.89
2019-04-25T01:27:30.565Z,94470.84
2019-04-25T01:30:00.030Z,94466.30
2019-04-25T01:32:33.659Z,94465.63
2019-04-25T01:35:14.006Z,94471.02
2019-04-25T01:37:51.159Z,94464.69
2019-04-25T01:40:38.120Z,94456.22
2019-04-25T01:43:17.974Z,94458.17
2019-04-25T01:45:48.237Z,94467.78
2019-04-25T01:48:17.912Z,94468.43
2019-04-25T01:50:49.266Z,94465.65
2019-04-25T01:53:18.825Z,94469.55
2019-04-25T01:55:55.848Z,94466.29
2019-04-25T01:58:19.902Z,94466.61
2019-04-25T02:00:52.098Z,94458.98
2019-04-25T02:03:25.385Z,94462.38
2019-04-25T02:05:55.223Z,94459.10
2019-04-25T02:08:25.027Z,94454.02
2019-04-25T02:10:58.991Z,94461.02
2019-04-25T02:13:28.428Z,94465.40
2019-04-25T02:15:58.043Z,94470.91
2019-04-25T02:18:27.528Z,94467.65
2019-04-25T02:20:59.324Z,94474.98
2019-04-25T02:23:28.209Z,94472.58
2019-04-25T02:26:09.712Z,94469.45
2019-04-25T02:28:28.944Z,94476.19
2019-04-25T02:31:00.681Z,94470.85
2019-04-25T02:33:29.816Z,94468.46
2019-04-25T02:36:01.050Z,94481.30
2019-04-25T02:38:30.456Z,94483.71
2019-04-25T02:41:01.982Z,94484.02
2019-04-25T02:43:31.196Z,94468.91
2019-04-25T02:46:11.212Z,94477.34
2019-04-25T02:49:02.633Z,94479.63
2019-04-25T02:51:39.092Z,94480.97
2019-04-25T02:54:08.584Z,94478.25
2019-04-25T02:56:39.075Z,94467.28
2019-04-25T02:59:09.270Z,94467.23
2019-04-25T03:01:38.964Z,94469.73
2019-04-25T03:04:11.029Z,94465.80
2019-04-25T03:06:39.714Z,94465.80
2019-04-25T03:09:10.912Z,94469.36
2019-04-25T03:11:40.899Z,94469.53
2019-04-25T03:14:10.494Z,94475.42
2019-04-25T03:16:40.160Z,94474.67
2019-04-25T03:19:17.855Z,94475.76
2019-04-25T03:21:48.979Z,94471.07
2019-04-25T03:24:18.596Z,94478.50
2019-04-25T03:26:48.127Z,94482.19
2019-04-25T03:29:17.614Z,94483.78
2019-04-25T03:31:47.092Z,94486.17
2019-04-25T03:34:20.287Z,94485.22
2019-04-25T03:36:47.774Z,94482.84
2019-04-25T03:39:17.269Z,94466.70
2019-04-25T03:41:46.740Z,94479.24
2019-04-25T03:44:16.392Z,94476.03
2019-04-25T03:46:45.874Z,94478.41
2019-04-25T03:49:15.370Z,94477.70
2019-04-25T03:51:44.846Z,94475.80
2019-04-25T03:54:14.562Z,94477.28
2019-04-25T03:56:51.675Z,94477.88
2019-04-25T03:59:16.113Z,94480.14
2019-04-25T04:01:45.602Z,94475.50
2019-04-25T04:04:16.224Z,94474.11
2019-04-25T04:06:45.862Z,94476.67
2019-04-25T04:09:15.358Z,94478.88
2019-04-25T04:11:44.847Z,94482.73
2019-04-25T04:14:15.735Z,94483.91
2019-04-25T04:16:49.668Z,94483.78
2019-04-25T04:19:19.206Z,94480.08
2019-04-25T04:21:50.316Z,94469.51
2019-04-25T04:24:25.875Z,94469.46
2019-04-25T04:27:09.051Z,94477.44
2019-04-25T04:29:38.758Z,94471.70
2019-04-25T04:32:08.686Z,94480.27
2019-04-25T04:34:39.448Z,94483.16
2019-04-25T04:37:09.027Z,94485.95
2019-04-25T04:39:39.736Z,94482.75
2019-04-25T04:42:09.651Z,94493.02
2019-04-25T04:44:39.547Z,94494.84
2019-04-25T04:47:10.006Z,94491.51
2019-04-25T04:49:39.569Z,94489.33
2019-04-25T04:52:09.333Z,94503.52
2019-04-25T04:54:40.044Z,94490.34
2019-04-25T04:57:23.134Z,94485.89
2019-04-25T04:59:40.740Z,94490.77
2019-04-25T05:02:10.696Z,94493.11
2019-04-25T05:04:58.838Z,94494.66
2019-04-25T05:07:36.847Z,94488.57
2019-04-25T05:10:07.064Z,94500.86
2019-04-25T05:12:36.578Z,94496.39
2019-04-25T05:15:08.144Z,94485.98
2019-04-25T05:17:38.829Z,94489.75
2019-04-25T05:20:08.644Z,94492.38
2019-04-25T05:22:38.127Z,94493.38
2019-04-25T05:25:08.771Z,94470.17
2019-04-25T05:27:56.766Z,94473.02
2019-04-25T05:30:14.587Z,94466.44
2019-04-25T05:32:44.215Z,94463.97
2019-04-25T05:35:14.970Z,94455.09
2019-04-25T05:37:44.780Z,94457.56
2019-04-25T05:40:15.826Z,94459.27
2019-04-25T05:42:56.181Z,94456.50
2019-04-25T05:45:27.310Z,94451.38
2019-04-25T05:47:56.803Z,94446.46
2019-04-25T05:50:26.331Z,94453.70
2019-04-25T05:52:55.800Z,94450.28
2019-04-25T05:55:25.304Z,94454.69
2019-04-25T05:57:54.755Z,94443.81
2019-04-25T06:00:25.054Z,94447.52
2019-04-25T06:02:55.438Z,94441.62
2019-04-25T06:05:26.495Z,94437.80
2019-04-25T06:07:56.726Z,94448.11
2019-04-25T06:10:27.913Z,94443.83
2019-04-25T06:13:14.913Z,94443.03
2019-04-25T06:15:48.712Z,94449.14
2019-04-25T06:18:28.370Z,94439.51
2019-04-25T06:20:57.986Z,94439.27
2019-04-25T06:23:31.866Z,94444.47
2019-04-25T06:26:17.074Z,94442.41
2019-04-25T06:28:34.529Z,94434.98
2019-04-25T06:31:09.912Z,94443.00
2019-04-25T06:33:35.365Z,94443.07
2019-04-25T06:36:04.900Z,94438.08
2019-04-25T06:38:34.461Z,94441.16
2019-04-25T06:41:04.071Z,94427.05
2019-04-25T06:43:34.472Z,94423.64
2019-04-25T06:46:22.970Z,94428.09
2019-04-25T06:48:54.623Z,94429.95
2019-04-25T06:51:26.942Z,94429.09
2019-04-25T06:53:56.955Z,94427.37
2019-04-25T06:56:26.445Z,94419.53
2019-04-25T06:58:55.947Z,94419.70
2019-04-25T07:01:26.709Z,94423.27
2019-04-25T07:03:56.730Z,94416.70
2019-04-25T07:06:27.151Z,94424.01
2019-04-25T07:08:56.667Z,94425.89
2019-04-25T07:11:26.966Z,94417.03
2019-04-25T07:13:56.564Z,94414.06
2019-04-25T07:16:27.279Z,94416.39
2019-04-25T07:18:56.863Z,94407.41
2019-04-25T07:21:26.337Z,94406.30
2019-04-25T07:23:56.064Z,94413.27
2019-04-25T07:26:28.219Z,94420.82
2019-04-25T07:28:57.507Z,94412.50
2019-04-25T07:31:33.196Z,94414.31
2019-04-25T07:34:16.730Z,94409.14
2019-04-25T07:36:46.278Z,94407.66
2019-04-25T07:39:16.029Z,94406.17
2019-04-25T07:41:45.564Z,94411.27
2019-04-25T07:44:15.072Z,94412.58
2019-04-25T07:46:45.811Z,94415.58
2019-04-25T07:49:15.316Z,94413.15
2019-04-25T07:51:45.499Z,94408.75
2019-04-25T07:54:15.025Z,94407.27
2019-04-25T07:56:44.498Z,94399.36
2019-04-25T07:59:14.059Z,94402.43
2019-04-25T08:01:43.797Z,94398.86
2019-04-25T08:04:13.745Z,94405.22
2019-04-25T08:06:44.481Z,94401.30
2019-04-25T08:09:15.718Z,94400.23
2019-04-25T08:11:45.216Z,94394.31
2019-04-25T08:14:22.304Z,94397.13
2019-04-25T08:16:59.391Z,94398.94
2019-04-25T08:19:29.646Z,94399.96
2019-04-25T08:22:00.474Z,94384.52
2019-04-25T08:24:34.648Z,94385.84
2019-04-25T08:27:05.334Z,94385.55
2019-04-25T08:29:38.056Z,94389.64
2019-04-25T08:32:06.109Z,94394.39
2019-04-25T08:34:36.320Z,94387.19
2019-04-25T08:37:17.361Z,94388.81
2019-04-25T08:39:38.744Z,94391.10
2019-04-25T08:42:09.506Z,94389.29
2019-04-25T08:44:39.219Z,94384.45
2019-04-25T08:47:08.746Z,94385.78
2019-04-25T08:49:40.107Z,94382.70
2019-04-25T08:52:09.658Z,94387.02
2019-04-25T08:54:44.376Z,94390.63
2019-04-25T08:57:25.582Z,94391.29
2019-04-25T08:59:59.417Z,94380.93
2019-04-25T09:02:39.474Z,94382.39
2019-04-25T09:05:29.509Z,94376.70
2019-04-25T09:07:59.094Z,94376.45
2019-04-25T09:10:28.622Z,94371.17
2019-04-25T09:12:58.148Z,94371.16
2019-04-25T09:15:27.657Z,94370.00
2019-04-25T09:17:57.144Z,94364.27
2019-04-25T09:20:26.615Z,94360.52
2019-04-25T09:22:56.155Z,94364.86
2019-04-25T09:25:25.696Z,94366.48
2019-04-25T09:27:55.256Z,94360.07
2019-04-25T09:30:24.966Z,94360.22
2019-04-25T09:32:54.458Z,94346.39
2019-04-25T09:35:23.927Z,94359.75
2019-04-25T09:37:53.709Z,94358.52
2019-04-25T09:40:24.017Z,94350.41
2019-04-25T09:42:53.862Z,94347.06
2019-04-25T09:45:28.099Z,94339.63
2019-04-25T09:47:59.270Z,94344.83
2019-04-25T09:50:38.200Z,94351.28
2019-04-25T09:53:07.708Z,94344.12
2019-04-25T09:55:41.727Z,94340.42
2019-04-25T09:58:21.521Z,94341.97
2019-04-25T10:00:58.833Z,94335.99
2019-04-25T10:03:28.329Z,94331.09
2019-04-25T10:05:57.802Z,94332.45
2019-04-25T10:08:27.378Z,94328.45
2019-04-25T10:10:57.532Z,94328.34
2019-04-25T10:13:27.172Z,94334.62
2019-04-25T10:16:09.266Z,94343.48
2019-04-25T10:18:39.302Z,94331.23
2019-04-25T10:21:11.322Z,94340.58
2019-04-25T10:23:43.631Z,94329.50
2019-04-25T10:26:13.664Z,94329.80
2019-04-25T10:28:45.034Z,94331.22
2019-04-25T10:31:14.702Z,94327.89
2019-04-25T10:33:46.649Z,94324.46
2019-04-25T10:36:15.657Z,94320.17
2019-04-25T10:39:01.411Z,94308.25
2019-04-25T10:41:16.708Z,94319.38
2019-04-25T10:43:46.293Z,94325.80
2019-04-25T10:46:16.320Z,94324.28
2019-04-25T10:48:46.065Z,94323.77
2019-04-25T10:51:15.606Z,94327.28
2019-04-25T10:53:46.750Z,94333.20
2019-04-25T10:56:16.559Z,94328.63
2019-04-25T10:58:46.725Z,94325.50
2019-04-25T11:01:17.467Z,94327.68
2019-04-25T11:03:48.614Z,94347.19
2019-04-25T11:06:20.326Z,94327.83
2019-04-25T11:08:49.863Z,94336.52
2019-04-25T11:11:19.422Z,94348.34
2019-04-25T11:13:48.960Z,94329.83
2019-04-25T11:16:18.546Z,94337.42
2019-04-25T11:18:48.156Z,94337.45
2019-04-25T11:21:17.703Z,94335.98
2019-04-25T11:23:48.824Z,94332.71
2019-04-25T11:26:18.801Z,94338.83
2019-04-25T11:28:48.806Z,94343.09
2019-04-25T11:31:20.380Z,94333.34
2019-04-25T11:33:49.982Z,94341.55
2019-04-25T11:36:20.440Z,94341.28
2019-04-25T11:39:07.613Z,94334.20
2019-04-25T11:41:37.180Z,94325.12
2019-04-25T11:44:07.316Z,94330.67
2019-04-25T11:46:39.257Z,94335.97
2019-04-25T11:49:08.541Z,94332.45
2019-04-25T11:51:38.126Z,94331.16
2019-04-25T11:54:07.642Z,94328.89
2019-04-25T11:56:37.198Z,94327.43
2019-04-25T11:59:06.698Z,94327.64
2019-04-25T12:01:36.241Z,94315.86
2019-04-25T12:04:05.896Z,94317.84
2019-04-25T12:06:35.609Z,94315.88
2019-04-25T12:09:05.926Z,94319.81
2019-04-25T12:11:35.586Z,94313.00
2019-04-25T12:14:05.161Z,94312.12
2019-04-25T12:16:34.706Z,94307.44
2019-04-25T12:19:04.825Z,94296.59
2019-04-25T12:21:34.448Z,94313.58
2019-04-25T12:24:05.737Z,94312.70
2019-04-25T12:26:35.220Z,94316.44
2019-04-25T12:29:04.875Z,94305.13
2019-04-25T12:31:34.375Z,94307.50
2019-04-25T12:34:03.888Z,94297.09
2019-04-25T12:36:34.098Z,94291.98
2019-04-25T12:39:05.488Z,94300.08
2019-04-25T12:41:34.973Z,94297.80
2019-04-25T12:44:18.308Z,94303.97
2019-04-25T12:46:50.464Z,94298.63
2019-04-25T12:49:20.129Z,94306.28
2019-04-25T12:51:49.829Z,94302.09
2019-04-25T12:54:19.390Z,94294.39
2019-04-25T12:56:49.257Z,94291.59
2019-04-25T12:59:18.876Z,94291.87
2019-04-25T13:01:49.390Z,94292.39
2019-04-25T13:04:18.899Z,94291.92
2019-04-25T13:06:48.873Z,94289.51
2019-04-25T13:09:18.400Z,94292.20
2019-04-25T13:11:47.891Z,94277.97
2019-04-25T13:14:17.576Z,94286.41
2019-04-25T13:16:47.158Z,94282.20
2019-04-25T13:19:23.780Z,94279.05
2019-04-25T13:21:47.859Z,94275.11
2019-04-25T13:24:17.533Z,94271.38
2019-04-25T13:26:48.650Z,94285.65
2019-04-25T13:29:23.188Z,94285.20
2019-04-25T13:31:59.032Z,94283.30
2019-04-25T13:34:36.319Z,94272.84
2019-04-25T13:37:01.441Z,94265.09
2019-04-25T13:39:31.007Z,94258.95
2019-04-25T13:42:02.103Z,94262.19
2019-04-25T13:44:31.863Z,94260.83
2019-04-25T13:47:01.616Z,94257.06
2019-04-25T13:49:31.635Z,94258.12
2019-04-25T13:52:01.189Z,94261.09
2019-04-25T13:54:31.423Z,94256.27
2019-04-25T13:57:01.026Z,94256.25
2019-04-25T13:59:30.597Z,94258.64
2019-04-25T14:02:01.716Z,94262.43
2019-04-25T14:04:31.443Z,94264.84
2019-04-25T14:07:01.268Z,94255.46
2019-04-25T14:09:32.147Z,94253.87
2019-04-25T14:12:01.723Z,94250.09
2019-04-25T14:14:31.223Z,94254.41
2019-04-25T14:17:18.371Z,94248.25
2019-04-25T14:19:52.200Z,94239.91
2019-04-25T14:22:22.144Z,94232.66
2019-04-25T14:24:54.098Z,94241.78
2019-04-25T14:27:25.141Z,94235.11
2019-04-25T14:29:55.510Z,94235.16
2019-04-25T14:32:28.330Z,94235.95
2019-04-25T14:34:56.352Z,94233.00
2019-04-25T14:37:28.190Z,94234.05
2019-04-25T14:39:57.093Z,94236.17
2019-04-25T14:42:26.605Z,94236.17
2019-04-25T14:44:56.152Z,94231.61
2019-04-25T14:47:25.645Z,94221.15
2019-04-25T14:49:55.120Z,94229.20
2019-04-25T14:52:24.627Z,94229.94
2019-04-25T14:54:55.917Z,94224.99
2019-04-25T14:57:29.809Z,94223.89
2019-04-25T15:00:01.953Z,94218.09
2019-04-25T15:02:32.406Z,94213.59
2019-04-25T15:05:01.894Z,94216.80
2019-04-25T15:07:31.379Z,94224.98
2019-04-25T15:10:00.919Z,94213.88
2019-04-25T15:12:30.439Z,94213.98
2019-04-25T15:15:00.031Z,94220.36
2019-04-25T15:17:29.519Z,94209.80
2019-04-25T15:19:59.002Z,94211.51
2019-04-25T15:22:29.044Z,94206.58
2019-04-25T15:24:58.554Z,94211.17
2019-04-25T15:27:28.042Z,94213.83
2019-04-25T15:29:57.954Z,94208.57
2019-04-25T15:32:29.090Z,94209.88
2019-04-25T15:34:59.317Z,94216.44
2019-04-25T15:37:36.386Z,94215.36
2019-04-25T15:40:21.532Z,94209.28
2019-04-25T15:42:55.361Z,94213.47
2019-04-25T15:45:32.731Z,94208.35
2019-04-25T15:48:02.628Z,94199.28
2019-04-25T15:50:32.112Z,94202.27
2019-04-25T15:53:01.586Z,94204.52
2019-04-25T15:55:31.256Z,94197.78
2019-04-25T15:58:00.754Z,94202.14
2019-04-25T16:00:32.798Z,94204.16
2019-04-25T16:03:48.638Z,94203.20
2019-04-25T16:06:18.499Z,94204.66
2019-04-25T16:08:47.998Z,94204.66
2019-04-25T16:11:17.524Z,94196.11
2019-04-25T16:13:47.089Z,94200.77
2019-04-25T16:16:16.568Z,94198.16
2019-04-25T16:18:46.063Z,94201.13
2019-04-25T16:21:15.687Z,94204.59
2019-04-25T16:23:45.188Z,94203.27
2019-04-25T16:26:14.826Z,94209.42
2019-04-25T16:28:44.346Z,94208.63
2019-04-25T16:31:15.712Z,94208.33
2019-04-25T16:33:45.184Z,94204.84
2019-04-25T16:36:14.679Z,94219.03
2019-04-25T16:38:44.179Z,94210.16
2019-04-25T16:41:14.968Z,94216.56
2019-04-25T16:43:46.154Z,94206.92
2019-04-25T16:46:17.089Z,94208.02
2019-04-25T16:48:46.650Z,94207.16
2019-04-25T16:51:16.697Z,94200.77
2019-04-25T16:53:46.189Z,94195.33
2019-04-25T16:56:15.682Z,94194.76
2019-04-25T16:58:45.179Z,94191.50
2019-04-25T17:01:14.901Z,94197.36
2019-04-25T17:03:44.731Z,94195.20
2019-04-25T17:06:14.354Z,94189.03
2019-04-25T17:08:44.055Z,94191.64
2019-04-25T17:11:13.816Z,94190.28
2019-04-25T17:13:45.015Z,94185.66
2019-04-25T17:16:32.561Z,94190.12
2019-04-25T17:19:03.822Z,94184.73
2019-04-25T17:21:33.374Z,94186.57
2019-04-25T17:24:03.040Z,94186.00
2019-04-25T17:26:33.335Z,94196.09
2019-04-25T17:29:04.539Z,94197.09
2019-04-25T17:31:36.553Z,94186.37
2019-04-25T17:34:25.710Z,94196.22
2019-04-25T17:37:02.642Z,94206.27
2019-04-25T17:39:33.968Z,94208.65
2019-04-25T17:42:03.491Z,94209.63
2019-04-25T17:44:33.060Z,94211.95
2019-04-25T17:47:06.530Z,94216.99
2019-04-25T17:49:34.239Z,94206.49
2019-04-25T17:52:03.911Z,94209.10
2019-04-25T17:54:34.222Z,94205.30
2019-04-25T17:57:03.779Z,94204.73
2019-04-25T17:59:33.486Z,94195.57
2019-04-25T18:02:04.192Z,94195.78
2019-04-25T18:04:34.168Z,94200.00
2019-04-25T18:07:04.387Z,94206.06
2019-04-25T18:09:34.411Z,94204.91
2019-04-25T18:12:05.112Z,94208.63
2019-04-25T18:14:35.207Z,94210.14
2019-04-25T18:17:04.996Z,94197.53
2019-04-25T18:19:39.099Z,94193.22
2019-04-25T18:22:10.341Z,94195.62
2019-04-25T18:24:43.567Z,94202.98
2019-04-25T18:27:17.504Z,94194.96
2019-04-25T18:29:47.052Z,94197.56
2019-04-25T18:32:16.547Z,94197.71
2019-04-25T18:34:50.422Z,94194.23
2019-04-25T18:37:19.832Z,94190.91
2019-04-25T18:39:50.956Z,94196.64
2019-04-25T18:42:25.086Z,94201.70
2019-04-25T18:44:55.452Z,94205.95
2019-04-25T18:47:25.014Z,94211.44
2019-04-25T18:49:54.593Z,94208.64
2019-04-25T18:52:28.374Z,94209.69
2019-04-25T18:54:59.555Z,94211.21
2019-04-25T18:57:30.728Z,94213.58
2019-04-25T19:00:01.828Z,94216.50
2019-04-25T19:02:41.950Z,94228.63
2019-04-25T19:05:13.242Z,94237.64
2019-04-25T19:07:43.086Z,94233.88
2019-04-25T19:10:13.260Z,94228.52
2019-04-25T19:12:43.221Z,94227.64
2019-04-25T19:15:12.852Z,94227.27
2019-04-25T19:17:43.280Z,94230.41
2019-04-25T19:20:13.165Z,94231.86
2019-04-25T19:22:43.611Z,94241.13
2019-04-25T19:25:13.260Z,94244.48
2019-04-25T19:27:42.760Z,94237.25
2019-04-25T19:30:14.520Z,94241.09
2019-04-25T19:32:44.911Z,94247.48
2019-04-25T19:35:15.791Z,94260.36
2019-04-25T19:37:45.274Z,94258.77
2019-04-25T19:40:33.470Z,94257.19
2019-04-25T19:43:08.707Z,94267.30
2019-04-25T19:45:38.528Z,94261.46
2019-04-25T19:48:07.998Z,94263.03
2019-04-25T19:50:37.493Z,94262.52
2019-04-25T19:53:06.959Z,94262.30
2019-04-25T19:55:36.512Z,94263.77
2019-04-25T19:58:06.865Z,94262.36
2019-04-25T20:00:37.072Z,94264.44
2019-04-25T20:03:20.027Z,94278.56
2019-04-25T20:05:50.387Z,94282.70
2019-04-25T20:08:22.305Z,94276.30
2019-04-25T20:10:56.403Z,94275.91
2019-04-25T20:13:25.892Z,94279.73
2019-04-25T20:15:55.363Z,94281.51
2019-04-25T20:18:24.892Z,94277.56
2019-04-25T20:20:54.846Z,94280.73
2019-04-25T20:23:24.348Z,94275.20
2019-04-25T20:25:57.064Z,94280.02
2019-04-25T20:28:25.132Z,94285.44
2019-04-25T20:30:54.624Z,94282.20
2019-04-25T20:33:24.100Z,94287.48
2019-04-25T20:35:53.575Z,94299.28
2019-04-25T20:38:23.066Z,94293.33
2019-04-25T20:40:52.575Z,94293.19
2019-04-25T20:43:22.041Z,94296.52
2019-04-25T20:45:52.401Z,94299.69
2019-04-25T20:48:22.006Z,94299.52
2019-04-25T20:50:52.387Z,94298.81
2019-04-25T20:53:21.962Z,94296.44
2019-04-25T20:55:51.460Z,94298.36
2019-04-25T20:58:20.971Z,94299.06
2019-04-25T21:00:52.121Z,94296.66
2019-04-25T21:03:21.592Z,94292.05
2019-04-25T21:05:53.099Z,94286.72
2019-04-25T21:08:24.487Z,94287.94
2019-04-25T21:10:53.838Z,94282.73
2019-04-25T21:13:27.688Z,94288.53
2019-04-25T21:16:02.638Z,94292.51
2019-04-25T21:18:36.838Z,94291.00
2019-04-25T21:21:06.328Z,94288.17
2019-04-25T21:23:35.792Z,94284.84
2019-04-25T21:26:05.279Z,94288.89
2019-04-25T21:28:34.774Z,94292.13
2019-04-25T21:31:04.339Z,94292.50
2019-04-25T21:33:33.816Z,94294.91
2019-04-25T21:36:03.583Z,94295.30
2019-04-25T21:38:33.238Z,94293.25
2019-04-25T21:41:10.058Z,94293.13
2019-04-25T21:43:41.389Z,94291.57
2019-04-25T21:46:11.150Z,94294.94
2019-04-25T21:48:40.852Z,94295.27
2019-04-25T21:51:27.540Z,94290.70
2019-04-25T21:53:57.284Z,94286.96
2019-04-25T21:56:27.119Z,94276.09
2019-04-25T21:58:57.590Z,94276.48
2019-04-25T22:01:29.982Z,94281.42
2019-04-25T22:03:59.663Z,94276.73
2019-04-25T22:06:30.135Z,94274.56
2019-04-25T22:09:00.654Z,94267.23
2019-04-25T22:11:30.297Z,94265.48
2019-04-25T22:14:00.067Z,94257.23
2019-04-25T22:16:30.638Z,94262.50
2019-04-25T22:19:00.330Z,94259.33
2019-04-25T22:21:37.898Z,94257.15
2019-04-25T22:24:09.281Z,94259.64
2019-04-25T22:26:32.480Z,94255.60
2019-04-25T22:29:03.272Z,94258.29
2019-04-25T22:31:40.073Z,94257.83
2019-04-25T22:34:11.197Z,94265.14
2019-04-25T22:36:41.330Z,94259.98
2019-04-25T22:39:11.671Z,94262.58
2019-04-25T22:41:46.803Z,94260.71
2019-04-25T22:44:18.149Z,94260.83
2019-04-25T22:46:48.031Z,94253.10
2019-04-25T22:49:17.576Z,94254.33
2019-04-25T22:51:47.057Z,94256.91
2019-04-25T22:54:16.883Z,94253.59
2019-04-25T22:56:46.373Z,94254.32
2019-04-25T22:59:16.136Z,94256.40
2019-04-25T23:02:05.458Z,94263.27
2019-04-25T23:04:36.768Z,94265.59
2019-04-25T23:07:06.336Z,94267.19
2019-04-25T23:09:37.081Z,94257.76
2019-04-25T23:12:07.076Z,94259.78
2019-04-25T23:14:37.021Z,94261.66
2019-04-25T23:17:07.346Z,94253.09
2019-04-25T23:19:36.889Z,94258.71
2019-04-25T23:22:07.338Z,94259.19
2019-04-25T23:24:38.494Z,94253.01
2019-04-25T23:27:15.739Z,94254.59
2019-04-25T23:29:45.214Z,94250.83
2019-04-25T23:32:14.977Z,94249.79
2019-04-25T23:34:44.447Z,94253.84
2019-04-25T23:37:13.931Z,94260.07
2019-04-25T23:39:44.489Z,94255.78
2019-04-25T23:42:15.625Z,94254.84
2019-04-25T23:44:45.385Z,94253.16
2019-04-25T23:47:14.874Z,94261.02
2019-04-25T23:49:44.356Z,94256.98
2019-04-25T23:52:15.042Z,94243.95
2019-04-25T23:54:44.574Z,94251.23
2019-04-25T23:57:14.130Z,94241.24
2019-04-25T23:59:43.617Z,94240.83
